createdAt,value
2023-03-26T00:01:36.720Z,9.81
2023-03-26T00:04:08.458Z,9.81
2023-03-26T00:06:39.610Z,9.72
2023-03-26T00:09:09.505Z,9.69
2023-03-26T00:11:37.723Z,9.66
2023-03-26T00:14:06.512Z,9.70
2023-03-26T00:16:34.732Z,9.86
2023-03-26T00:19:05.077Z,9.74
2023-03-26T00:21:34.968Z,9.85
2023-03-26T00:24:05.379Z,9.77
2023-03-26T00:26:37.623Z,9.68
2023-03-26T00:29:10.292Z,9.74
2023-03-26T00:31:39.849Z,9.71
2023-03-26T00:34:10.520Z,9.67
2023-03-26T00:36:42.290Z,9.78
2023-03-26T00:39:14.508Z,9.83
2023-03-26T00:41:43.498Z,9.75
2023-03-26T00:44:12.592Z,9.76
2023-03-26T00:46:40.981Z,9.74
2023-03-26T00:49:11.011Z,9.64
2023-03-26T00:51:41.181Z,9.70
2023-03-26T00:54:12.062Z,9.70
2023-03-26T00:56:41.239Z,9.59
2023-03-26T00:59:11.782Z,9.58
2023-03-26T01:01:43.040Z,9.49
2023-03-26T01:04:28.441Z,9.48
2023-03-26T01:07:02.729Z,9.53
2023-03-26T01:09:36.966Z,9.46
2023-03-26T01:12:11.859Z,9.48
2023-03-26T01:14:40.314Z,9.58
2023-03-26T01:17:12.804Z,9.51
2023-03-26T01:19:46.733Z,9.54
2023-03-26T01:22:18.878Z,9.49
2023-03-26T01:24:53.897Z,9.39
2023-03-26T01:27:33.932Z,9.34
2023-03-26T01:30:11.782Z,9.32
2023-03-26T01:33:01.018Z,9.42
2023-03-26T01:35:42.796Z,9.36
2023-03-26T01:38:24.414Z,9.39
2023-03-26T01:41:00.818Z,9.42
2023-03-26T01:43:34.399Z,9.34
2023-03-26T01:46:07.484Z,9.36
2023-03-26T01:48:38.191Z,9.43
2023-03-26T01:51:09.141Z,9.31
2023-03-26T01:53:42.747Z,9.26
2023-03-26T01:56:19.840Z,9.25
2023-03-26T01:59:00.792Z,9.13
2023-03-26T02:01:37.429Z,9.22
2023-03-26T02:04:17.491Z,9.15
2023-03-26T02:06:48.654Z,9.11
2023-03-26T02:09:22.367Z,9.06
2023-03-26T02:11:52.425Z,9.23
2023-03-26T02:14:20.562Z,9.17
2023-03-26T02:16:48.680Z,9.18
2023-03-26T02:19:21.854Z,9.17
2023-03-26T02:21:52.295Z,9.17
2023-03-26T02:24:21.697Z,9.18
2023-03-26T02:26:58.137Z,9.17
2023-03-26T02:29:28.516Z,9.18
2023-03-26T02:31:56.857Z,9.13
2023-03-26T02:34:25.116Z,9.11
2023-03-26T02:36:58.167Z,9.22
2023-03-26T02:39:27.722Z,9.31
2023-03-26T02:42:00.865Z,9.20
2023-03-26T02:44:30.684Z,9.26
2023-03-26T02:46:59.318Z,9.17
2023-03-26T02:49:46.264Z,9.11
2023-03-26T02:52:21.130Z,9.07
2023-03-26T02:54:51.091Z,9.10
2023-03-26T02:57:23.010Z,9.18
2023-03-26T03:00:05.676Z,9.19
2023-03-26T03:02:44.459Z,9.19
2023-03-26T03:05:34.018Z,9.24
2023-03-26T03:08:21.816Z,9.20
2023-03-26T03:11:10.739Z,9.42
2023-03-26T03:13:45.015Z,9.35
2023-03-26T03:16:16.987Z,9.48
2023-03-26T03:18:46.539Z,9.33
2023-03-26T03:21:14.894Z,9.31
2023-03-26T03:23:44.463Z,9.40
2023-03-26T03:26:21.599Z,9.34
2023-03-26T03:28:56.114Z,9.38
2023-03-26T03:31:25.561Z,9.37
2023-03-26T03:33:56.808Z,9.51
2023-03-26T03:36:27.745Z,9.48
2023-03-26T03:39:06.575Z,9.47
2023-03-26T03:41:36.345Z,9.44
2023-03-26T03:44:10.068Z,9.35
2023-03-26T03:46:37.941Z,9.37
2023-03-26T03:49:06.015Z,9.49
2023-03-26T03:51:37.388Z,9.42
2023-03-26T03:54:12.872Z,9.40
2023-03-26T03:57:03.302Z,9.32
2023-03-26T03:59:47.996Z,9.29
2023-03-26T04:02:26.649Z,9.33
2023-03-26T04:04:59.339Z,9.32
2023-03-26T04:07:32.132Z,9.33
2023-03-26T04:10:07.426Z,9.39
2023-03-26T04:12:53.975Z,9.46
2023-03-26T04:15:36.393Z,9.45
2023-03-26T04:18:13.162Z,9.42
2023-03-26T04:20:47.615Z,9.42
2023-03-26T04:23:22.873Z,9.52
2023-03-26T04:25:59.068Z,9.48
2023-03-26T04:28:46.333Z,9.49
2023-03-26T04:31:39.243Z,9.49
2023-03-26T04:34:14.371Z,9.51
2023-03-26T04:36:55.978Z,9.53
2023-03-26T04:39:29.922Z,9.53
2023-03-26T04:42:19.931Z,9.76
2023-03-26T04:45:11.221Z,9.70
2023-03-26T04:47:46.469Z,9.71
2023-03-26T04:50:16.030Z,9.74
2023-03-26T04:52:45.490Z,9.68
2023-03-26T04:55:37.845Z,9.69
2023-03-26T04:58:17.195Z,9.72
2023-03-26T05:00:53.699Z,9.67
2023-03-26T05:03:31.897Z,9.65
2023-03-26T05:06:05.035Z,9.64
2023-03-26T05:08:34.179Z,9.59
2023-03-26T05:11:02.115Z,9.57
2023-03-26T05:13:36.091Z,9.57
2023-03-26T05:16:14.739Z,9.53
2023-03-26T05:18:51.517Z,9.52
2023-03-26T05:21:20.267Z,9.53
2023-03-26T05:23:48.131Z,9.53
2023-03-26T05:26:21.002Z,9.48
2023-03-26T05:28:52.636Z,9.43
2023-03-26T05:31:27.005Z,9.39
2023-03-26T05:36:29.100Z,9.46
2023-03-26T05:39:18.851Z,9.47
2023-03-26T05:42:07.845Z,9.51
2023-03-26T05:45:11.980Z,9.54
2023-03-26T05:47:43.049Z,9.55
2023-03-26T05:50:13.226Z,9.58
2023-03-26T05:52:44.581Z,9.60
2023-03-26T05:55:28.874Z,9.62
2023-03-26T05:58:16.233Z,9.67
2023-03-26T06:01:25.728Z,9.69
2023-03-26T06:04:20.251Z,9.67
2023-03-26T06:07:10.079Z,9.63
2023-03-26T06:09:39.995Z,9.58
2023-03-26T06:12:12.277Z,9.62
2023-03-26T06:14:42.723Z,9.63
2023-03-26T06:17:19.209Z,9.65
2023-03-26T06:22:42.949Z,9.68
2023-03-26T06:25:19.318Z,9.70
2023-03-26T06:28:10.778Z,9.65
2023-03-26T06:31:00.702Z,9.54
2023-03-26T06:33:53.258Z,9.53
2023-03-26T06:36:21.613Z,9.50
2023-03-26T06:38:55.391Z,9.56
2023-03-26T06:41:23.492Z,9.55
2023-03-26T06:44:09.838Z,9.59
2023-03-26T06:47:01.102Z,9.58
2023-03-26T06:49:49.458Z,9.67
2023-03-26T06:52:35.988Z,9.66
2023-03-26T06:55:31.528Z,9.71
2023-03-26T06:58:12.593Z,9.80
2023-03-26T07:01:00.751Z,9.92
2023-03-26T07:03:47.262Z,9.97
2023-03-26T07:06:34.114Z,10.06
2023-03-26T07:09:22.026Z,10.02
2023-03-26T07:12:10.914Z,10.04
2023-03-26T07:15:00.722Z,10.09
2023-03-26T07:17:55.381Z,10.10
2023-03-26T07:20:30.179Z,10.05
2023-03-26T07:22:58.851Z,10.10
2023-03-26T07:25:50.060Z,10.08
2023-03-26T07:28:26.688Z,9.96
2023-03-26T07:31:27.423Z,10.05
2023-03-26T07:34:47.203Z,10.01
2023-03-26T07:37:38.349Z,9.99
2023-03-26T07:40:29.928Z,9.90
2023-03-26T07:43:27.125Z,9.93
2023-03-26T07:46:20.891Z,10.07
2023-03-26T07:48:58.577Z,10.04
2023-03-26T07:51:37.172Z,10.04
2023-03-26T07:54:12.259Z,9.93
2023-03-26T07:57:20.971Z,9.90
2023-03-26T08:00:08.245Z,9.96
2023-03-26T08:03:15.096Z,9.94
2023-03-26T08:06:16.831Z,9.88
2023-03-26T08:09:04.200Z,9.91
2023-03-26T08:12:02.356Z,9.85
2023-03-26T08:14:46.559Z,9.75
2023-03-26T08:17:25.757Z,9.77
2023-03-26T08:20:07.461Z,9.81
2023-03-26T08:22:41.150Z,9.78
2023-03-26T08:25:20.847Z,9.79
2023-03-26T08:28:01.330Z,9.78
2023-03-26T08:30:30.951Z,9.88
2023-03-26T08:33:11.225Z,9.88
2023-03-26T08:35:42.729Z,9.85
2023-03-26T08:38:10.891Z,9.81
2023-03-26T08:41:02.982Z,9.84
2023-03-26T08:44:04.078Z,9.86
2023-03-26T08:47:14.371Z,9.82
2023-03-26T08:50:18.338Z,9.71
2023-03-26T08:53:18.827Z,9.83
2023-03-26T08:55:54.768Z,9.91
2023-03-26T08:59:15.532Z,9.90
2023-03-26T09:02:13.561Z,9.85
2023-03-26T09:05:16.350Z,9.88
2023-03-26T09:08:26.278Z,9.98
2023-03-26T09:11:26.876Z,9.86
2023-03-26T09:14:22.475Z,9.90
2023-03-26T09:17:26.698Z,9.74
2023-03-26T09:20:20.690Z,9.67
2023-03-26T09:23:08.124Z,9.70
2023-03-26T09:26:08.740Z,9.66
2023-03-26T09:29:33.417Z,9.81
2023-03-26T09:32:32.062Z,9.80
2023-03-26T09:35:16.974Z,9.74
2023-03-26T09:37:59.996Z,9.85
2023-03-26T09:40:38.762Z,9.81
2023-03-26T09:43:36.151Z,9.77
2023-03-26T09:46:21.709Z,9.93
2023-03-26T09:49:06.213Z,9.96
2023-03-26T09:51:53.417Z,9.86
2023-03-26T09:54:47.213Z,9.90
2023-03-26T09:57:30.409Z,9.81
2023-03-26T10:00:22.028Z,9.67
2023-03-26T10:03:27.416Z,9.76
2023-03-26T10:06:19.927Z,9.80
2023-03-26T10:09:01.400Z,9.81
2023-03-26T10:11:44.522Z,9.84
2023-03-26T10:14:24.028Z,9.82
2023-03-26T10:17:05.898Z,9.84
2023-03-26T10:19:50.869Z,9.95
2023-03-26T10:22:39.908Z,10.01
2023-03-26T10:25:33.668Z,10.13
2023-03-26T10:28:17.664Z,10.21
2023-03-26T10:31:12.836Z,10.17
2023-03-26T10:33:54.404Z,10.12
2023-03-26T10:36:29.956Z,10.17
2023-03-26T10:39:36.268Z,10.20
2023-03-26T10:42:24.655Z,10.42
2023-03-26T10:45:19.480Z,10.39
2023-03-26T10:48:00.123Z,10.57
2023-03-26T10:50:42.920Z,10.59
2023-03-26T10:53:19.723Z,11.00
2023-03-26T10:55:55.700Z,11.25
2023-03-26T10:58:27.358Z,11.54
2023-03-26T11:01:04.688Z,11.29
2023-03-26T11:03:51.943Z,11.56
2023-03-26T11:06:30.987Z,11.59
2023-03-26T11:09:12.267Z,11.79
2023-03-26T11:11:49.980Z,12.04
2023-03-26T11:14:34.173Z,12.18
2023-03-26T11:17:40.353Z,12.16
2023-03-26T11:20:08.456Z,12.45
2023-03-26T11:22:54.891Z,12.43
2023-03-26T11:25:31.505Z,12.55
2023-03-26T11:28:13.917Z,12.66
2023-03-26T11:30:50.096Z,12.56
2023-03-26T11:33:21.987Z,12.69
2023-03-26T11:35:54.147Z,12.76
2023-03-26T11:38:27.569Z,12.50
2023-03-26T11:40:59.007Z,12.40
2023-03-26T11:44:02.871Z,12.11
2023-03-26T11:46:34.683Z,12.03
2023-03-26T11:49:12.038Z,11.75
2023-03-26T11:51:43.030Z,11.63
2023-03-26T11:54:13.245Z,11.56
2023-03-26T11:57:05.461Z,11.57
2023-03-26T11:59:53.316Z,11.46
2023-03-26T12:02:32.628Z,11.59
2023-03-26T12:05:25.004Z,11.74
2023-03-26T12:07:58.665Z,11.86
2023-03-26T12:10:32.674Z,12.12
2023-03-26T12:13:03.594Z,12.60
2023-03-26T12:15:33.479Z,13.25
2023-03-26T12:18:21.789Z,13.93
2023-03-26T12:21:04.578Z,14.09
2023-03-26T12:23:39.486Z,13.66
2023-03-26T12:26:20.945Z,13.64
2023-03-26T12:28:51.466Z,13.26
2023-03-26T12:31:23.297Z,12.88
2023-03-26T12:34:08.363Z,12.78
2023-03-26T12:36:39.488Z,12.33
2023-03-26T12:40:08.826Z,12.05
2023-03-26T12:44:54.391Z,11.47
2023-03-26T12:45:17.342Z,11.39
2023-03-26T12:48:02.334Z,11.60
2023-03-26T12:50:51.143Z,11.48
2023-03-26T12:53:32.018Z,11.67
2023-03-26T12:56:11.024Z,11.91
2023-03-26T12:59:06.045Z,12.45
2023-03-26T13:01:44.980Z,12.70
2023-03-26T13:04:37.531Z,12.59
2023-03-26T13:07:17.085Z,12.69
2023-03-26T13:10:03.699Z,13.10
2023-03-26T13:12:41.265Z,13.70
2023-03-26T13:15:25.617Z,14.26
2023-03-26T13:18:08.868Z,14.60
2023-03-26T13:20:58.139Z,15.07
2023-03-26T13:23:40.449Z,15.30
2023-03-26T13:26:39.088Z,15.61
2023-03-26T13:29:15.840Z,15.84
2023-03-26T13:31:54.913Z,16.00
2023-03-26T13:34:36.540Z,16.07
2023-03-26T13:37:14.316Z,15.57
2023-03-26T13:39:56.645Z,15.45
2023-03-26T13:42:41.162Z,15.30
2023-03-26T13:45:25.295Z,14.86
2023-03-26T13:47:56.850Z,14.59
2023-03-26T13:50:29.020Z,14.16
2023-03-26T13:53:03.249Z,13.85
2023-03-26T13:55:37.454Z,13.88
2023-03-26T13:58:13.272Z,13.84
2023-03-26T14:00:54.445Z,13.57
2023-03-26T14:03:30.972Z,13.47
2023-03-26T14:06:04.965Z,13.37
2023-03-26T14:08:41.963Z,13.30
2023-03-26T14:11:13.912Z,13.26
2023-03-26T14:13:49.780Z,13.21
2023-03-26T14:16:22.556Z,13.20
2023-03-26T14:18:58.316Z,13.12
2023-03-26T14:21:43.176Z,13.14
2023-03-26T14:24:44.691Z,13.15
2023-03-26T14:27:25.755Z,13.23
2023-03-26T14:30:05.694Z,13.22
2023-03-26T14:32:52.752Z,13.39
2023-03-26T14:35:33.971Z,13.66
2023-03-26T14:38:24.836Z,13.58
2023-03-26T14:40:58.848Z,13.59
2023-03-26T14:43:50.482Z,13.98
2023-03-26T14:46:36.234Z,14.12
2023-03-26T14:49:47.268Z,14.07
2023-03-26T14:52:22.624Z,14.20
2023-03-26T14:54:55.582Z,14.40
2023-03-26T14:58:07.773Z,14.88
2023-03-26T15:01:18.356Z,15.73
2023-03-26T15:04:44.003Z,16.03
2023-03-26T15:07:36.884Z,16.32
2023-03-26T15:10:26.148Z,16.73
2023-03-26T15:13:26.342Z,16.86
2023-03-26T15:16:29.750Z,17.23
2023-03-26T15:19:26.898Z,17.38
2023-03-26T15:22:31.982Z,17.03
2023-03-26T15:25:37.781Z,16.22
2023-03-26T15:28:41.490Z,15.88
2023-03-26T15:31:37.264Z,15.70
2023-03-26T15:34:43.348Z,15.57
2023-03-26T15:37:44.521Z,14.71
2023-03-26T15:40:36.257Z,14.41
2023-03-26T15:43:12.407Z,14.79
2023-03-26T15:45:43.306Z,14.92
2023-03-26T15:48:35.546Z,14.97
2023-03-26T15:51:21.906Z,14.90
2023-03-26T15:53:58.854Z,14.70
2023-03-26T15:56:53.289Z,14.57
2023-03-26T15:59:43.251Z,14.49
2023-03-26T16:02:26.518Z,14.36
2023-03-26T16:05:08.298Z,14.26
2023-03-26T16:07:52.762Z,13.93
2023-03-26T16:10:30.272Z,13.85
2023-03-26T16:13:37.996Z,13.68
2023-03-26T16:16:23.965Z,13.37
2023-03-26T16:18:59.536Z,12.91
2023-03-26T16:21:45.739Z,12.18
2023-03-26T16:24:24.573Z,11.78
2023-03-26T16:27:08.175Z,11.40
2023-03-26T16:30:27.360Z,11.20
2023-03-26T16:32:58.699Z,10.93
2023-03-26T16:36:04.397Z,10.73
2023-03-26T16:38:55.750Z,10.50
2023-03-26T16:41:27.351Z,10.33
2023-03-26T16:44:15.651Z,10.37
2023-03-26T16:46:57.869Z,10.37
2023-03-26T16:49:38.689Z,10.20
2023-03-26T16:52:25.684Z,10.20
2023-03-26T16:55:07.637Z,10.22
2023-03-26T16:57:42.473Z,10.21
2023-03-26T17:00:43.838Z,10.19
2023-03-26T17:03:37.567Z,10.21
2023-03-26T17:06:34.175Z,10.38
2023-03-26T17:09:09.460Z,10.32
2023-03-26T17:11:53.160Z,10.11
2023-03-26T17:14:32.107Z,10.05
2023-03-26T17:17:13.236Z,10.02
2023-03-26T17:19:50.318Z,10.03
2023-03-26T17:22:31.142Z,9.89
2023-03-26T17:25:04.872Z,9.87
2023-03-26T17:28:15.866Z,9.87
2023-03-26T17:31:03.272Z,9.86
2023-03-26T17:33:38.961Z,9.84
2023-03-26T17:36:41.343Z,9.89
2023-03-26T17:39:46.814Z,9.90
2023-03-26T17:42:25.908Z,9.90
2023-03-26T17:44:57.092Z,9.95
2023-03-26T17:47:44.977Z,9.94
2023-03-26T17:50:21.169Z,9.95
2023-03-26T17:52:58.342Z,9.99
2023-03-26T17:55:31.385Z,10.03
2023-03-26T17:58:01.149Z,10.09
2023-03-26T18:00:34.480Z,10.05
2023-03-26T18:03:08.995Z,10.06
2023-03-26T18:05:49.538Z,10.05
2023-03-26T18:08:37.124Z,10.10
2023-03-26T18:11:27.943Z,10.10
2023-03-26T18:14:13.613Z,10.10
2023-03-26T18:16:50.502Z,10.12
2023-03-26T18:19:21.981Z,10.12
2023-03-26T18:21:51.931Z,10.17
2023-03-26T18:24:37.543Z,10.15
2023-03-26T18:27:12.228Z,10.14
2023-03-26T18:29:45.864Z,10.11
2023-03-26T18:32:23.963Z,10.12
2023-03-26T18:34:57.342Z,10.14
2023-03-26T18:37:29.534Z,10.14
2023-03-26T18:40:07.444Z,10.19
2023-03-26T18:42:35.615Z,10.19
2023-03-26T18:45:10.783Z,10.17
2023-03-26T18:47:45.209Z,10.15
2023-03-26T18:50:18.901Z,10.15
2023-03-26T18:52:47.321Z,10.14
2023-03-26T18:55:17.068Z,10.09
2023-03-26T18:57:46.241Z,10.04
2023-03-26T19:00:22.045Z,10.04
2023-03-26T19:03:00.808Z,9.99
2023-03-26T19:05:29.500Z,9.99
2023-03-26T19:08:00.318Z,10.00
2023-03-26T19:10:28.580Z,10.01
2023-03-26T19:12:57.759Z,9.95
2023-03-26T19:15:28.212Z,9.96
2023-03-26T19:18:06.860Z,9.93
2023-03-26T19:20:42.433Z,9.88
2023-03-26T19:23:16.563Z,9.88
2023-03-26T19:25:48.135Z,9.92
2023-03-26T19:28:21.038Z,9.88
2023-03-26T19:30:54.883Z,9.85
2023-03-26T19:33:36.384Z,9.98
2023-03-26T19:36:19.001Z,9.96
2023-03-26T19:38:52.524Z,9.82
2023-03-26T19:41:24.923Z,9.77
2023-03-26T19:43:56.091Z,9.76
2023-03-26T19:46:27.855Z,9.78
2023-03-26T19:48:59.067Z,9.81
2023-03-26T19:51:33.496Z,9.79
2023-03-26T19:54:04.611Z,9.76
2023-03-26T19:56:33.761Z,9.79
2023-03-26T19:59:05.225Z,9.77
2023-03-26T20:01:34.637Z,9.73
2023-03-26T20:04:06.633Z,9.72
2023-03-26T20:06:43.336Z,9.68
2023-03-26T20:09:14.187Z,9.64
2023-03-26T20:11:42.725Z,9.67
2023-03-26T20:14:15.502Z,9.68
2023-03-26T20:16:46.440Z,9.76
2023-03-26T20:19:19.172Z,9.84
2023-03-26T20:21:50.000Z,9.80
2023-03-26T20:24:21.833Z,9.82
2023-03-26T20:26:49.802Z,9.84
2023-03-26T20:29:18.195Z,9.81
2023-03-26T20:31:49.326Z,9.80
2023-03-26T20:34:23.517Z,9.82
2023-03-26T20:36:55.272Z,9.91
2023-03-26T20:39:24.305Z,10.02
2023-03-26T20:41:54.027Z,9.93
2023-03-26T20:44:22.654Z,9.82
2023-03-26T20:46:52.543Z,9.84
2023-03-26T20:49:22.867Z,9.76
2023-03-26T20:51:51.774Z,9.63
2023-03-26T20:54:23.105Z,9.62
2023-03-26T20:56:52.522Z,9.71
2023-03-26T20:59:22.492Z,9.68
2023-03-26T21:01:51.362Z,9.71
2023-03-26T21:04:22.384Z,9.70
2023-03-26T21:06:51.787Z,9.65
2023-03-26T21:09:24.259Z,9.59
2023-03-26T21:12:02.876Z,9.57
2023-03-26T21:14:34.698Z,9.49
2023-03-26T21:17:03.322Z,9.48
2023-03-26T21:19:36.237Z,9.59
2023-03-26T21:22:19.073Z,9.49
2023-03-26T21:25:04.391Z,9.48
2023-03-26T21:27:44.751Z,9.44
2023-03-26T21:30:16.823Z,9.40
2023-03-26T21:32:47.910Z,9.36
2023-03-26T21:35:18.784Z,9.32
2023-03-26T21:37:48.551Z,9.32
2023-03-26T21:40:18.286Z,9.36
2023-03-26T21:42:47.920Z,9.21
2023-03-26T21:45:21.975Z,9.19
2023-03-26T21:47:51.757Z,9.19
2023-03-26T21:50:25.029Z,9.23
2023-03-26T21:52:53.798Z,9.15
2023-03-26T21:55:23.604Z,9.07
2023-03-26T21:58:13.604Z,9.03
2023-03-26T22:00:54.863Z,8.99
2023-03-26T22:03:29.359Z,8.97
2023-03-26T22:06:07.049Z,8.94
2023-03-26T22:08:40.762Z,8.89
2023-03-26T22:11:12.539Z,8.92
2023-03-26T22:13:41.211Z,8.82
2023-03-26T22:16:14.032Z,8.93
2023-03-26T22:18:43.605Z,8.79
2023-03-26T22:21:14.515Z,8.66
2023-03-26T22:23:52.712Z,8.56
2023-03-26T22:26:23.422Z,8.55
2023-03-26T22:28:51.924Z,8.57
2023-03-26T22:31:20.016Z,8.55
2023-03-26T22:33:49.172Z,8.56
2023-03-26T22:36:22.752Z,8.59
2023-03-26T22:38:53.922Z,8.37
2023-03-26T22:41:25.780Z,8.32
2023-03-26T22:43:55.323Z,8.31
2023-03-26T22:46:24.170Z,8.26
2023-03-26T22:48:53.053Z,8.29
2023-03-26T22:51:25.454Z,8.24
2023-03-26T22:53:53.448Z,8.25
2023-03-26T22:56:22.022Z,8.20
2023-03-26T22:58:50.040Z,8.17
2023-03-26T23:01:21.329Z,8.09
2023-03-26T23:03:49.818Z,8.08
2023-03-26T23:06:18.227Z,7.95
2023-03-26T23:08:47.946Z,7.99
2023-03-26T23:11:18.464Z,8.03
2023-03-26T23:13:47.445Z,7.87
2023-03-26T23:16:16.772Z,7.90
2023-03-26T23:18:45.146Z,7.87
2023-03-26T23:21:15.459Z,7.83
2023-03-26T23:23:43.473Z,7.88
2023-03-26T23:26:12.704Z,7.90
2023-03-26T23:28:41.353Z,7.87
2023-03-26T23:31:14.132Z,7.86
2023-03-26T23:33:45.957Z,7.77
2023-03-26T23:36:17.777Z,7.85
2023-03-26T23:38:48.983Z,7.80
2023-03-26T23:41:22.537Z,7.78
2023-03-26T23:43:55.562Z,7.74
2023-03-26T23:46:25.821Z,7.65
2023-03-26T23:48:59.822Z,7.81
2023-03-26T23:51:30.280Z,7.76
2023-03-26T23:53:58.848Z,7.70
2023-03-26T23:56:29.670Z,7.58
2023-03-26T23:58:58.179Z,7.66
